Time;durP1;ratioP1;P1;durP2;ratioP2;P2;SDS_P1;SDS_P2;PMS_P1;PMS_P2;Temp;Humidity;BMP_temperature;BMP_pressure;BME280_temperature;BME280_humidity;BME280_pressure;Samples;Min_cycle;Max_cycle;Signal;HPM_P1;HPM_P2
2022/04/05 04:01:42;;;;;;;15.23;12.90;;;5.20;99.90;;;;;;5401475;23;20894;-66
2022/04/05 04:04:09;;;;;;;14.17;12.63;;;5.20;99.90;;;;;;4996314;28;20454;-66
2022/04/05 04:06:36;;;;;;;14.87;13.40;;;5.20;99.90;;;;;;4996470;28;20481;-67
2022/04/05 04:09:02;;;;;;;13.90;12.60;;;5.20;99.90;;;;;;4996154;28;20462;-66
2022/04/05 04:11:29;;;;;;;14.70;13.23;;;5.20;99.90;;;;;;4996010;28;20483;-68
2022/04/05 04:13:56;;;;;;;15.43;13.50;;;5.20;99.90;;;;;;4996379;28;20454;-67
2022/04/05 04:16:22;;;;;;;17.30;13.90;;;5.20;99.90;;;;;;4996389;28;20486;-68
2022/04/05 04:18:51;;;;;;;16.10;13.27;;;5.20;99.90;;;;;;4996132;28;20941;-68
2022/04/05 04:21:17;;;;;;;15.33;13.83;;;5.20;99.90;;;;;;4995940;28;20469;-67
2022/04/05 04:23:44;;;;;;;15.43;13.90;;;5.20;99.90;;;;;;4996093;28;20980;-66
2022/04/05 04:26:11;;;;;;;15.80;14.17;;;5.20;99.90;;;;;;4996145;28;20582;-67
2022/04/05 04:28:38;;;;;;;16.30;14.50;;;5.20;99.90;;;;;;4996202;28;20454;-67
2022/04/05 04:31:05;;;;;;;15.97;14.43;;;5.30;99.90;;;;;;4995937;28;20571;-67
2022/04/05 04:33:31;;;;;;;16.20;13.77;;;5.20;99.90;;;;;;4996019;28;20454;-67
2022/04/05 04:35:59;;;;;;;15.00;12.53;;;5.20;99.90;;;;;;5000308;28;20454;-67
2022/04/05 04:38:27;;;;;;;15.67;13.80;;;5.20;99.90;;;;;;5004602;28;20461;-67
2022/04/05 04:40:53;;;;;;;15.00;13.50;;;5.20;99.90;;;;;;5000469;28;20478;-67
2022/04/05 04:43:23;;;;;;;16.60;14.90;;;5.30;99.90;;;;;;4998036;28;20821;-66
2022/04/05 04:45:49;;;;;;;16.23;14.13;;;5.30;99.90;;;;;;4997217;28;20469;-67
2022/04/05 04:48:17;;;;;;;18.73;14.40;;;5.40;99.90;;;;;;4996603;28;20474;-66
2022/04/05 04:50:44;;;;;;;15.97;14.07;;;5.40;99.90;;;;;;4996490;28;20545;-67
2022/04/05 04:53:12;;;;;;;16.30;14.63;;;5.30;99.90;;;;;;4995965;28;20460;-67
2022/04/05 04:55:39;;;;;;;15.80;14.23;;;5.30;99.90;;;;;;4996023;28;20453;-67
2022/04/05 04:58:06;;;;;;;14.93;13.13;;;5.30;99.90;;;;;;4995873;28;20454;-67
2022/04/05 05:00:32;;;;;;;15.30;13.80;;;5.30;99.90;;;;;;4995582;28;20489;-67
2022/04/05 05:02:59;;;;;;;16.20;14.60;;;5.30;99.90;;;;;;4996359;28;20443;-67
2022/04/05 05:05:26;;;;;;;12.13;10.90;;;5.20;99.90;;;;;;4998775;28;20458;-66
2022/04/05 05:07:54;;;;;;;18.23;13.60;;;5.30;99.90;;;;;;4997787;28;20539;-67
2022/04/05 05:10:23;;;;;;;17.37;12.10;;;5.30;99.90;;;;;;4996145;28;20454;-68
2022/04/05 05:12:50;;;;;;;16.00;13.50;;;5.20;99.90;;;;;;4995536;28;20486;-67
2022/04/05 05:15:19;;;;;;;15.27;13.60;;;5.30;99.90;;;;;;4995529;28;20462;-67
2022/04/05 05:17:47;;;;;;;14.83;13.17;;;5.30;99.90;;;;;;4995422;28;20504;-67
2022/04/05 05:20:15;;;;;;;13.00;11.70;;;5.30;99.90;;;;;;4995226;28;20458;-66
2022/04/05 05:22:42;;;;;;;14.57;13.20;;;5.30;99.90;;;;;;4994884;28;20458;-66
2022/04/05 05:25:10;;;;;;;14.40;12.90;;;5.40;99.90;;;;;;4994854;28;20821;-66
2022/04/05 05:27:38;;;;;;;14.70;12.40;;;5.40;99.90;;;;;;4994404;28;20481;-66
2022/04/05 05:30:07;;;;;;;15.77;13.27;;;5.40;99.90;;;;;;4994789;28;20541;-66
2022/04/05 05:32:41;;;;;;;15.30;13.03;;;5.40;99.90;;;;;;4994444;28;20474;-66
2022/04/05 05:35:08;;;;;;;14.50;12.87;;;5.40;99.90;;;;;;4994461;28;20447;-66
2022/04/05 05:37:35;;;;;;;14.20;12.50;;;5.40;99.90;;;;;;4994411;28;20530;-66
2022/04/05 05:40:02;;;;;;;14.63;12.90;;;5.40;99.90;;;;;;4994244;28;20905;-66
2022/04/05 05:42:28;;;;;;;15.60;14.03;;;5.40;99.90;;;;;;4994524;28;20478;-66
2022/04/05 05:44:56;;;;;;;14.07;12.00;;;5.40;99.90;;;;;;4994282;28;20462;-66
2022/04/05 05:47:24;;;;;;;15.70;14.20;;;5.40;99.90;;;;;;4994485;28;20482;-66
2022/04/05 05:49:50;;;;;;;15.30;12.57;;;5.50;99.90;;;;;;4994315;28;20938;-67
2022/04/05 05:52:17;;;;;;;18.33;13.23;;;5.50;99.90;;;;;;4994478;28;20529;-65
2022/04/05 05:54:44;;;;;;;15.20;13.67;;;5.50;99.90;;;;;;4994452;28;20457;-66
2022/04/05 05:57:10;;;;;;;15.40;13.80;;;5.50;99.90;;;;;;4994565;28;20485;-66
2022/04/05 05:59:37;;;;;;;17.20;14.77;;;5.40;99.90;;;;;;4994522;28;20454;-66
2022/04/05 06:02:05;;;;;;;16.10;14.43;;;5.40;99.90;;;;;;4993948;28;20492;-66
2022/04/05 06:04:32;;;;;;;42.77;30.50;;;5.40;99.90;;;;;;4994549;28;20457;-66
2022/04/05 06:06:59;;;;;;;36.23;24.43;;;5.40;99.90;;;;;;4994564;28;20481;-66
2022/04/05 06:09:25;;;;;;;19.87;17.80;;;5.40;99.90;;;;;;4994024;28;20944;-66
2022/04/05 06:11:52;;;;;;;25.57;19.00;;;5.40;99.90;;;;;;4994345;28;20478;-66
2022/04/05 06:14:19;;;;;;;20.33;17.20;;;5.40;99.90;;;;;;4994988;28;20461;-66
2022/04/05 06:16:45;;;;;;;23.20;18.87;;;5.40;99.90;;;;;;4995252;28;20465;-66
2022/04/05 06:19:13;;;;;;;19.50;16.23;;;5.40;99.90;;;;;;4996836;28;20457;-66
2022/04/05 06:21:40;;;;;;;16.53;14.80;;;5.40;99.90;;;;;;4998292;28;20526;-66
2022/04/05 06:24:07;;;;;;;17.53;14.63;;;5.40;99.90;;;;;;4998290;28;20468;-66
2022/04/05 06:26:34;;;;;;;15.50;13.90;;;5.40;99.90;;;;;;4998074;28;20465;-66
2022/04/05 06:29:00;;;;;;;16.37;14.73;;;5.40;99.90;;;;;;4998000;28;20481;-66
2022/04/05 06:31:27;;;;;;;16.20;14.50;;;5.50;99.90;;;;;;4997986;28;20480;-67
2022/04/05 06:33:56;;;;;;;15.40;13.57;;;5.50;99.90;;;;;;4998558;28;20449;-66
2022/04/05 06:36:24;;;;;;;14.53;12.60;;;5.50;99.90;;;;;;4997847;28;20937;-66
2022/04/05 06:38:50;;;;;;;13.80;12.40;;;5.50;99.90;;;;;;4998175;28;20450;-66
2022/04/05 06:41:17;;;;;;;13.47;12.17;;;5.50;99.90;;;;;;4997885;28;20480;-66
2022/04/05 06:43:44;;;;;;;12.57;11.30;;;5.50;99.90;;;;;;4997811;28;20461;-66
2022/04/05 06:46:10;;;;;;;13.17;11.87;;;5.60;99.90;;;;;;4997909;28;20813;-66
2022/04/05 06:48:37;;;;;;;14.00;12.20;;;5.60;99.90;;;;;;4997818;28;20466;-66
2022/04/05 06:51:04;;;;;;;13.27;11.93;;;5.60;99.90;;;;;;4997864;28;20852;-67
2022/04/05 06:53:32;;;;;;;15.30;13.10;;;5.60;99.90;;;;;;4997814;28;20457;-66
2022/04/05 06:55:59;;;;;;;14.03;12.73;;;5.60;99.90;;;;;;4997708;28;20453;-66
2022/04/05 06:58:26;;;;;;;12.40;11.17;;;5.60;99.90;;;;;;4997648;28;20450;-66
2022/04/05 07:00:53;;;;;;;12.90;11.60;;;5.70;99.90;;;;;;4997486;28;20493;-66
2022/04/05 07:03:19;;;;;;;15.57;12.47;;;5.70;99.90;;;;;;4997555;28;20460;-66
2022/04/05 07:05:46;;;;;;;14.37;12.73;;;5.70;99.90;;;;;;4997291;28;20463;-66
2022/04/05 07:08:13;;;;;;;13.60;12.20;;;5.70;99.90;;;;;;4997308;28;20481;-66
2022/04/05 07:10:41;;;;;;;21.97;17.07;;;5.70;99.90;;;;;;4997577;28;20474;-66
2022/04/05 07:13:08;;;;;;;15.77;13.80;;;5.70;99.90;;;;;;4997167;28;20458;-66
2022/04/05 07:15:35;;;;;;;15.63;12.57;;;5.70;99.90;;;;;;4997376;28;20493;-67
2022/04/05 07:18:02;;;;;;;14.70;11.87;;;5.70;99.90;;;;;;4997516;28;20450;-67
2022/04/05 07:20:28;;;;;;;13.60;12.30;;;5.70;99.90;;;;;;4997305;28;20481;-67
2022/04/05 07:22:55;;;;;;;21.53;10.97;;;5.70;99.90;;;;;;4997325;28;20529;-67
2022/04/05 07:25:22;;;;;;;13.67;12.37;;;5.70;99.90;;;;;;4997156;28;20480;-69
2022/04/05 07:27:51;;;;;;;13.37;12.00;;;5.70;99.90;;;;;;4996839;28;20988;-67
2022/04/05 07:30:18;;;;;;;14.70;13.13;;;5.70;99.90;;;;;;4997384;28;20462;-68
2022/04/05 07:32:46;;;;;;;15.70;12.97;;;5.70;99.90;;;;;;4997716;28;20549;-70
2022/04/05 07:35:14;;;;;;;13.23;11.93;;;5.70;99.90;;;;;;4999179;28;20884;-68
2022/04/05 07:37:42;;;;;;;14.93;13.53;;;5.80;99.90;;;;;;5001281;28;20446;-66
2022/04/05 07:40:10;;;;;;;18.93;12.80;;;5.80;99.90;;;;;;5001065;28;20453;-69
2022/04/05 07:42:38;;;;;;;12.90;11.60;;;6.00;99.90;;;;;;4999084;28;20494;-66
2022/04/05 07:45:07;;;;;;;14.03;12.60;;;6.00;99.90;;;;;;4998128;28;20820;-68
2022/04/05 07:47:34;;;;;;;12.93;11.83;;;6.10;99.90;;;;;;4997541;28;20550;-68
2022/04/05 07:50:01;;;;;;;13.70;12.10;;;6.20;99.90;;;;;;4997217;28;20462;-68
2022/04/05 07:52:28;;;;;;;13.00;11.00;;;6.30;99.90;;;;;;4996503;28;21007;-67
2022/04/05 07:54:54;;;;;;;11.50;10.30;;;6.30;99.90;;;;;;4996756;28;20457;-67
2022/04/05 07:57:21;;;;;;;12.87;11.67;;;6.40;99.90;;;;;;4996828;28;20856;-67
2022/04/05 07:59:48;;;;;;;12.87;11.63;;;6.40;99.90;;;;;;4996853;28;20461;-67
2022/04/05 08:02:16;;;;;;;11.40;10.13;;;6.40;99.90;;;;;;4996167;28;21015;-67
2022/04/05 08:04:42;;;;;;;12.73;11.43;;;6.50;99.90;;;;;;4996275;28;20979;-67
2022/04/05 08:07:09;;;;;;;11.10;10.13;;;6.50;99.90;;;;;;4996483;28;20532;-67
2022/04/05 08:09:36;;;;;;;13.63;11.47;;;6.50;99.90;;;;;;4996497;28;20458;-67
2022/04/05 08:12:03;;;;;;;12.50;10.90;;;6.50;99.90;;;;;;4996024;28;20837;-67
2022/04/05 08:14:29;;;;;;;12.20;11.00;;;6.60;99.90;;;;;;4996344;28;20461;-70
2022/04/05 08:16:57;;;;;;;14.47;12.80;;;6.60;99.90;;;;;;4996243;28;20465;-71
2022/04/05 08:19:25;;;;;;;13.53;12.07;;;6.60;99.90;;;;;;4996079;28;20458;-70
2022/04/05 08:21:52;;;;;;;11.40;10.40;;;6.70;99.90;;;;;;4996000;28;20470;-69
2022/04/05 08:24:20;;;;;;;12.37;10.90;;;6.80;99.90;;;;;;4996052;28;20453;-68
2022/04/05 08:26:47;;;;;;;17.93;11.03;;;6.90;99.90;;;;;;4995937;28;20454;-68
2022/04/05 08:29:13;;;;;;;10.67;9.63;;;6.90;99.90;;;;;;4995820;28;20885;-67
2022/04/05 08:31:40;;;;;;;11.40;10.20;;;7.00;99.90;;;;;;4995803;28;20478;-68
2022/04/05 08:34:07;;;;;;;10.87;9.70;;;7.00;99.90;;;;;;4996012;28;20489;-68
2022/04/05 08:36:35;;;;;;;12.50;11.20;;;7.10;99.90;;;;;;4996345;28;20454;-68
2022/04/05 08:39:02;;;;;;;9.97;9.07;;;7.10;99.90;;;;;;4995600;28;20450;-68
2022/04/05 08:41:29;;;;;;;9.90;8.90;;;7.10;99.90;;;;;;4994941;28;20474;-68
2022/04/05 08:43:57;;;;;;;12.67;8.70;;;7.20;99.90;;;;;;4995711;28;20529;-68
2022/04/05 08:46:25;;;;;;;9.27;8.37;;;7.20;99.90;;;;;;4996384;28;20457;-67
2022/04/05 08:48:53;;;;;;;13.07;9.47;;;7.30;99.90;;;;;;4995579;28;20474;-68
2022/04/05 08:51:20;;;;;;;10.37;9.30;;;7.30;99.90;;;;;;4995417;28;20810;-69
2022/04/05 08:53:48;;;;;;;9.90;8.90;;;7.40;99.90;;;;;;4995435;28;20461;-68
2022/04/05 08:56:16;;;;;;;10.33;9.03;;;7.40;99.90;;;;;;4995084;28;20465;-68
2022/04/05 08:58:42;;;;;;;11.07;9.97;;;7.40;99.90;;;;;;4996075;28;20490;-68
2022/04/05 09:01:09;;;;;;;10.20;9.20;;;7.40;99.90;;;;;;4994950;28;20505;-68
2022/04/05 09:03:36;;;;;;;11.13;10.00;;;7.50;99.90;;;;;;4995246;28;20490;-68
2022/04/05 09:06:24;;;;;;;10.77;9.67;;;7.50;99.90;;;;;;4995257;28;20464;-68
2022/04/05 09:08:52;;;;;;;9.83;8.83;;;7.60;99.90;;;;;;4995236;28;20477;-67
2022/04/05 09:11:20;;;;;;;12.80;10.00;;;7.70;99.90;;;;;;4994687;28;20840;-69
2022/04/05 09:13:58;;;;;;;12.93;11.57;;;7.80;99.90;;;;;;4995024;28;20505;-68
2022/04/05 09:16:31;;;;;;;11.43;10.37;;;8.00;99.90;;;;;;4995105;28;20449;-68
2022/04/05 09:18:58;;;;;;;12.43;11.23;;;8.00;99.90;;;;;;4994895;28;20470;-69
2022/04/05 09:21:25;;;;;;;13.43;10.87;;;8.20;99.90;;;;;;4994919;28;20481;-69
2022/04/05 09:23:53;;;;;;;13.10;11.37;;;8.20;99.90;;;;;;4994855;28;20458;-68
2022/04/05 09:26:22;;;;;;;13.53;12.30;;;8.20;99.90;;;;;;4994873;28;20465;-68
2022/04/05 09:28:51;;;;;;;12.23;11.13;;;8.30;99.90;;;;;;4994343;28;20572;-69
2022/04/05 09:31:19;;;;;;;11.73;10.63;;;8.30;99.90;;;;;;4994666;28;20478;-69
2022/04/05 09:34:03;;;;;;;12.13;10.93;;;8.40;99.90;;;;;;4994708;28;20457;-69
2022/04/05 09:36:34;;;;;;;12.23;11.23;;;8.40;99.90;;;;;;4995330;28;20478;-69
2022/04/05 09:39:21;;;;;;;14.37;11.93;;;8.30;99.90;;;;;;4994774;28;20454;-69
2022/04/05 09:41:52;;;;;;;12.07;11.03;;;8.30;99.90;;;;;;4994724;28;20480;-69
2022/04/05 09:44:26;;;;;;;14.50;11.60;;;8.40;99.90;;;;;;4994433;28;20959;-70
2022/04/05 09:47:03;;;;;;;13.30;12.00;;;8.40;99.90;;;;;;4994788;28;20437;-69
2022/04/05 09:49:34;;;;;;;13.73;12.33;;;8.40;99.90;;;;;;4994638;28;20465;-69
2022/04/05 09:52:01;;;;;;;16.33;14.63;;;8.50;99.90;;;;;;4994587;28;20489;-68
2022/04/05 09:54:30;;;;;;;13.17;11.97;;;8.50;99.90;;;;;;4994247;28;20458;-68
2022/04/05 09:57:03;;;;;;;14.10;12.90;;;8.60;99.90;;;;;;4994416;28;20458;-67
2022/04/05 09:59:38;;;;;;;13.50;12.20;;;8.60;99.90;;;;;;4994474;28;20454;-68
2022/04/05 10:02:10;;;;;;;13.10;11.90;;;8.70;99.90;;;;;;4993380;28;20923;-66
2022/04/05 10:05:04;;;;;;;12.70;11.47;;;8.80;99.90;;;;;;4994340;28;20195;-66
2022/04/05 10:07:32;;;;;;;14.30;10.80;;;8.80;99.90;;;;;;4994074;28;20940;-66
2022/04/05 10:10:00;;;;;;;14.07;12.77;;;8.80;99.90;;;;;;4994007;28;20953;-67
2022/04/05 10:12:27;;;;;;;16.30;13.07;;;8.90;99.90;;;;;;4994281;28;20474;-68
2022/04/05 10:14:55;;;;;;;15.10;12.40;;;8.80;99.90;;;;;;4994340;28;20465;-66
2022/04/05 10:17:27;;;;;;;11.27;9.90;;;8.80;99.90;;;;;;4994287;28;20454;-67
2022/04/05 10:19:56;;;;;;;14.97;11.87;;;8.80;99.90;;;;;;4994376;28;20466;-67
2022/04/05 10:22:25;;;;;;;14.17;12.87;;;8.80;99.90;;;;;;4994381;28;20474;-67
2022/04/05 10:24:53;;;;;;;11.00;9.90;;;8.90;99.90;;;;;;4994363;28;20458;-67
2022/04/05 10:27:20;;;;;;;12.20;11.00;;;8.80;99.90;;;;;;4994456;28;20937;-67
2022/04/05 10:29:51;;;;;;;9.80;8.80;;;8.80;99.90;;;;;;4994239;28;20484;-67
2022/04/05 10:32:28;;;;;;;11.73;10.70;;;8.80;99.90;;;;;;4994183;28;20482;-66
2022/04/05 10:35:02;;;;;;;10.00;9.00;;;8.80;99.90;;;;;;4994298;28;20439;-66
2022/04/05 10:37:36;;;;;;;12.30;8.23;;;8.80;99.90;;;;;;5001932;28;20441;-67
2022/04/05 10:40:15;;;;;;;9.20;8.40;;;8.80;99.90;;;;;;5002324;28;20435;-66
2022/04/05 10:42:42;;;;;;;7.53;6.60;;;8.90;99.90;;;;;;4996561;28;20457;-66
2022/04/05 10:45:12;;;;;;;6.20;5.60;;;8.90;99.90;;;;;;4995560;28;20465;-66
2022/04/05 10:48:01;;;;;;;8.33;6.77;;;8.90;99.90;;;;;;4995048;28;20482;-66
2022/04/05 10:50:28;;;;;;;7.20;6.60;;;8.90;99.90;;;;;;4994724;28;20454;-67
2022/04/05 10:53:14;;;;;;;7.03;6.33;;;8.90;99.90;;;;;;4994431;28;20453;-66
2022/04/05 10:56:15;;;;;;;6.50;5.97;;;8.90;99.90;;;;;;4994084;28;20454;-67
2022/04/05 10:59:16;;;;;;;7.17;6.50;;;8.90;99.90;;;;;;4934131;29;20437;-66
2022/04/05 11:01:44;;;;;;;6.83;6.23;;;8.80;99.90;;;;;;4929854;29;20484;-66
2022/04/05 11:04:33;;;;;;;6.70;6.10;;;8.90;99.90;;;;;;4975269;28;20525;-67
2022/04/05 11:07:11;;;;;;;7.13;6.50;;;8.90;99.90;;;;;;4997414;28;20430;-67
2022/04/05 11:09:50;;;;;;;7.10;6.40;;;9.00;99.90;;;;;;4997109;28;20849;-67
2022/04/05 11:12:20;;;;;;;6.90;6.30;;;9.00;99.90;;;;;;4997519;28;20477;-68
2022/04/05 11:14:50;;;;;;;5.47;5.00;;;9.00;99.90;;;;;;4997427;28;20501;-68
2022/04/05 11:17:18;;;;;;;9.57;6.03;;;9.00;99.90;;;;;;4997544;28;20894;-67
2022/04/05 11:19:46;;;;;;;6.10;5.60;;;9.00;99.90;;;;;;4997340;28;20450;-67
2022/04/05 11:22:31;;;;;;;5.63;5.10;;;9.00;99.90;;;;;;4997162;28;20474;-67
2022/04/05 11:25:03;;;;;;;8.90;7.07;;;9.00;99.90;;;;;;4997139;28;20500;-67
2022/04/05 11:27:31;;;;;;;7.10;6.07;;;9.10;99.90;;;;;;4997666;28;20442;-67
2022/04/05 11:30:37;;;;;;;7.60;6.90;;;9.10;99.90;;;;;;4997034;28;20478;-68
2022/04/05 11:33:44;;;;;;;12.80;7.40;;;9.10;99.90;;;;;;4996691;28;20438;-67
2022/04/05 11:36:13;;;;;;;6.70;6.20;;;9.20;99.90;;;;;;4996891;28;20453;-66
2022/04/05 11:38:42;;;;;;;8.47;6.73;;;9.20;99.90;;;;;;4996834;28;20496;-67
2022/04/05 11:41:12;;;;;;;6.90;6.40;;;9.30;99.90;;;;;;4996857;28;20984;-67
2022/04/05 11:43:41;;;;;;;6.83;6.17;;;9.30;99.90;;;;;;4996897;28;20839;-67
2022/04/05 11:46:11;;;;;;;7.70;6.93;;;9.40;99.90;;;;;;4996857;28;20456;-67
2022/04/05 11:48:42;;;;;;;6.93;6.33;;;9.40;99.90;;;;;;4996715;28;20481;-67
2022/04/05 11:51:10;;;;;;;7.73;6.60;;;9.50;99.90;;;;;;4996707;28;20513;-67
2022/04/05 11:53:38;;;;;;;7.00;6.47;;;9.50;99.90;;;;;;4997529;28;20469;-68
2022/04/05 11:56:16;;;;;;;8.93;6.40;;;9.50;99.90;;;;;;4996900;28;20480;-67
2022/04/05 11:58:46;;;;;;;6.67;6.10;;;9.60;99.90;;;;;;4996738;28;20442;-68
2022/04/05 12:01:15;;;;;;;7.40;6.80;;;9.70;99.90;;;;;;4996125;28;20849;-69
2022/04/05 12:03:48;;;;;;;9.43;6.77;;;9.70;99.90;;;;;;4996496;28;20458;-68
2022/04/05 12:06:18;;;;;;;7.00;6.40;;;9.70;99.90;;;;;;4996110;28;20804;-68
2022/04/05 12:08:45;;;;;;;6.73;6.13;;;9.80;99.90;;;;;;4996247;28;20484;-69
2022/04/05 12:11:15;;;;;;;7.50;5.93;;;9.90;99.90;;;;;;4996203;28;20478;-67
2022/04/05 12:17:35;;;;;;;6.93;6.37;;;10.00;99.90;;;;;;4995628;28;20446;-68
2022/04/05 12:23:33;;;;;;;6.40;5.90;;;10.00;99.90;;;;;;4994509;28;20808;-67
2022/04/05 12:26:12;;;;;;;5.33;4.93;;;10.00;99.90;;;;;;4996044;28;20461;-67
2022/04/05 12:28:41;;;;;;;5.57;5.17;;;10.10;99.90;;;;;;4995705;28;20438;-66
2022/04/05 12:31:10;;;;;;;5.80;5.30;;;10.10;99.90;;;;;;4996096;28;20474;-68
2022/04/05 12:33:39;;;;;;;5.87;5.47;;;10.10;99.90;;;;;;4996610;28;20458;-67
2022/04/05 12:36:06;;;;;;;5.40;5.00;;;10.10;99.90;;;;;;4997343;28;20454;-67
2022/04/05 12:38:34;;;;;;;7.80;6.30;;;10.20;99.90;;;;;;4996432;28;20508;-67
2022/04/05 12:41:02;;;;;;;5.67;5.27;;;10.20;99.90;;;;;;4995843;28;20632;-67
2022/04/05 12:43:29;;;;;;;5.30;4.90;;;10.30;99.90;;;;;;4996021;28;20457;-67
2022/04/05 12:46:12;;;;;;;6.07;5.57;;;10.30;99.90;;;;;;4995549;28;20461;-66
2022/04/05 12:48:40;;;;;;;6.43;5.80;;;10.30;99.90;;;;;;4996069;28;20438;-67
2022/04/05 12:51:06;;;;;;;14.10;5.80;;;10.30;99.90;;;;;;4995723;28;20532;-67
2022/04/05 12:53:37;;;;;;;5.60;5.20;;;10.40;99.90;;;;;;4995336;28;20513;-67
2022/04/05 12:56:08;;;;;;;9.23;5.90;;;10.30;99.90;;;;;;4995379;28;20936;-67
2022/04/05 12:58:40;;;;;;;7.47;6.27;;;10.30;99.90;;;;;;4995333;28;20478;-67
2022/04/05 13:01:23;;;;;;;6.37;5.87;;;10.30;99.90;;;;;;4994806;28;20512;-67
2022/04/05 13:03:56;;;;;;;6.53;6.00;;;10.30;99.90;;;;;;4994929;28;20927;-67
2022/04/05 13:06:31;;;;;;;8.37;7.67;;;10.30;99.90;;;;;;4995218;28;20445;-67
2022/04/05 13:09:06;;;;;;;6.83;6.20;;;10.30;99.90;;;;;;4994753;28;20991;-67
2022/04/05 13:11:33;;;;;;;7.90;7.30;;;10.30;99.90;;;;;;4995102;28;20501;-67
2022/04/05 13:14:05;;;;;;;7.90;7.30;;;10.30;99.90;;;;;;4995113;28;20907;-67
2022/04/05 13:16:34;;;;;;;7.13;6.43;;;10.40;99.90;;;;;;4994947;28;20891;-67
2022/04/05 13:19:12;;;;;;;5.40;4.70;;;10.40;99.90;;;;;;4995004;28;20493;-67
2022/04/05 13:21:44;;;;;;;4.53;4.20;;;10.50;99.90;;;;;;4995352;28;20481;-67
2022/04/05 13:24:12;;;;;;;2.80;2.70;;;10.50;99.90;;;;;;4995058;28;20461;-67
2022/04/05 13:26:41;;;;;;;3.60;3.40;;;10.50;99.90;;;;;;4994841;28;20460;-67
2022/04/05 13:29:10;;;;;;;5.80;3.60;;;10.40;99.90;;;;;;4994081;28;20478;-68
2022/04/05 13:31:43;;;;;;;4.00;3.80;;;10.40;99.90;;;;;;4995020;28;20480;-67
2022/04/05 13:34:10;;;;;;;5.03;4.53;;;10.50;99.90;;;;;;4995202;28;20442;-67
2022/04/05 13:36:37;;;;;;;5.57;5.03;;;10.50;99.90;;;;;;4998398;28;20454;-67
2022/04/05 13:39:05;;;;;;;5.50;3.97;;;10.60;99.90;;;;;;5001802;28;20454;-67
2022/04/05 13:41:33;;;;;;;6.20;3.40;;;10.60;99.90;;;;;;5000380;28;20482;-67
2022/04/05 13:44:00;;;;;;;3.40;3.17;;;10.60;99.90;;;;;;4998036;28;20465;-67
2022/04/05 13:46:28;;;;;;;6.40;4.20;;;10.50;99.90;;;;;;4998090;28;20615;-67
2022/04/05 13:48:56;;;;;;;4.10;3.80;;;10.50;99.90;;;;;;4997417;28;20485;-67
2022/04/05 13:51:24;;;;;;;4.00;3.77;;;10.50;99.90;;;;;;4997808;28;20458;-67
2022/04/05 13:53:51;;;;;;;4.17;3.73;;;10.50;99.90;;;;;;4997876;28;20457;-67
2022/04/05 13:56:18;;;;;;;4.30;4.10;;;10.60;99.90;;;;;;4997031;28;20461;-67
2022/04/05 13:58:44;;;;;;;3.83;3.53;;;10.60;99.90;;;;;;4996598;28;20458;-67
2022/04/05 14:01:11;;;;;;;3.93;3.57;;;10.70;99.90;;;;;;4996139;28;20481;-67
2022/04/05 14:03:38;;;;;;;3.47;3.17;;;10.70;99.90;;;;;;4997292;28;20461;-67
2022/04/05 14:06:06;;;;;;;3.50;3.30;;;10.70;99.90;;;;;;4996588;28;20458;-67
2022/04/05 14:08:34;;;;;;;4.20;4.00;;;10.70;99.90;;;;;;4996910;28;20453;-67
2022/04/05 14:11:01;;;;;;;3.33;3.13;;;10.60;99.90;;;;;;4996311;28;20525;-67
2022/04/05 14:13:28;;;;;;;3.50;3.30;;;10.60;99.90;;;;;;4996409;28;20892;-67
2022/04/05 14:15:55;;;;;;;4.30;4.00;;;10.60;99.90;;;;;;4995886;28;20462;-67
2022/04/05 14:18:22;;;;;;;6.27;5.77;;;10.70;99.90;;;;;;4994189;28;20454;-68
2022/04/05 14:20:48;;;;;;;7.20;6.70;;;10.60;99.90;;;;;;4994019;28;20977;-68
2022/04/05 14:23:17;;;;;;;7.83;7.13;;;10.60;99.90;;;;;;4994356;28;20464;-67
2022/04/05 14:25:43;;;;;;;8.83;8.00;;;10.60;99.90;;;;;;4994035;28;20972;-67
2022/04/05 14:28:10;;;;;;;9.27;8.40;;;10.50;99.90;;;;;;4994165;28;20461;-67
2022/04/05 14:30:38;;;;;;;8.20;7.60;;;10.50;99.90;;;;;;4994064;28;20980;-67
2022/04/05 14:33:04;;;;;;;7.87;7.20;;;10.60;99.90;;;;;;4994386;28;20467;-67
2022/04/05 14:35:31;;;;;;;8.37;7.67;;;10.60;99.90;;;;;;4994748;28;20450;-68
2022/04/05 14:37:58;;;;;;;8.17;7.47;;;10.70;99.90;;;;;;4994777;28;20461;-67
2022/04/05 14:40:26;;;;;;;8.10;7.50;;;10.80;99.90;;;;;;4996170;28;20960;-67
2022/04/05 14:42:53;;;;;;;8.83;8.13;;;10.90;99.90;;;;;;4999290;28;20458;-67
2022/04/05 14:45:20;;;;;;;8.73;7.90;;;10.90;99.90;;;;;;4999434;28;20492;-67
2022/04/05 14:47:47;;;;;;;6.50;6.10;;;11.00;99.90;;;;;;4999617;28;20458;-67
2022/04/05 14:50:14;;;;;;;7.70;6.90;;;11.00;99.90;;;;;;5000028;28;20495;-67
2022/04/05 14:52:41;;;;;;;6.00;5.60;;;11.10;99.90;;;;;;4999223;28;20457;-67
2022/04/05 14:55:08;;;;;;;6.23;5.73;;;11.10;99.90;;;;;;4998852;28;20462;-67
2022/04/05 14:57:36;;;;;;;7.07;5.70;;;11.10;99.90;;;;;;4998348;28;20863;-67
2022/04/05 15:00:05;;;;;;;5.53;5.07;;;11.00;99.90;;;;;;4998503;28;20458;-67
2022/04/05 15:02:32;;;;;;;6.03;5.53;;;11.00;99.90;;;;;;4997798;28;20520;-67
2022/04/05 15:04:59;;;;;;;5.23;4.83;;;11.00;99.90;;;;;;4997637;28;20827;-67
2022/04/05 15:07:25;;;;;;;5.77;5.47;;;11.00;99.90;;;;;;4997502;28;20460;-67
2022/04/05 15:09:52;;;;;;;5.53;5.10;;;11.10;99.90;;;;;;4997313;28;20486;-67
2022/04/05 15:12:19;;;;;;;6.17;5.60;;;11.20;99.90;;;;;;4997283;28;20500;-67
2022/04/05 15:14:47;;;;;;;6.17;5.00;;;11.20;99.90;;;;;;4998018;28;20485;-67
2022/04/05 15:17:14;;;;;;;7.13;6.43;;;11.30;99.90;;;;;;4997350;28;20485;-67
2022/04/05 15:19:40;;;;;;;6.80;6.30;;;11.30;99.90;;;;;;4998195;28;20485;-67
2022/04/05 15:22:07;;;;;;;6.10;5.70;;;11.30;99.90;;;;;;4997090;28;20484;-67
2022/04/05 15:24:34;;;;;;;7.07;6.40;;;11.40;99.90;;;;;;4997164;28;20454;-66
2022/04/05 15:27:01;;;;;;;8.50;7.80;;;11.40;99.90;;;;;;4997019;28;20465;-66
2022/04/05 15:29:35;;;;;;;8.13;7.40;;;11.40;99.90;;;;;;4996908;28;20461;-66
2022/04/05 15:32:05;;;;;;;10.80;9.90;;;11.40;99.90;;;;;;4996598;28;20976;-66
2022/04/05 15:34:31;;;;;;;6.60;6.20;;;11.40;99.90;;;;;;4996918;28;20481;-66
2022/04/05 15:36:58;;;;;;;7.43;6.50;;;11.40;99.90;;;;;;4996796;28;20867;-65
2022/04/05 15:39:25;;;;;;;5.33;4.93;;;11.40;99.90;;;;;;4996868;28;20481;-65
2022/04/05 15:41:53;;;;;;;6.50;5.90;;;11.30;99.90;;;;;;4996688;28;20470;-64
2022/04/05 15:44:20;;;;;;;4.50;4.20;;;11.30;99.90;;;;;;4996592;28;20454;-65
2022/04/05 15:46:47;;;;;;;4.90;4.20;;;11.30;99.90;;;;;;4996643;28;20466;-65
2022/04/05 15:49:15;;;;;;;3.80;3.60;;;11.30;99.90;;;;;;4996273;28;20511;-65
2022/04/05 15:51:42;;;;;;;4.57;4.10;;;11.30;99.90;;;;;;4995898;28;21000;-65
2022/04/05 15:54:08;;;;;;;4.70;4.37;;;11.30;99.90;;;;;;4996519;28;20449;-65
2022/04/05 15:56:36;;;;;;;5.37;5.07;;;11.30;99.90;;;;;;4996434;28;20544;-65
2022/04/05 15:59:04;;;;;;;5.80;5.40;;;11.20;99.90;;;;;;4996478;28;20504;-65
2022/04/05 16:01:30;;;;;;;4.87;4.57;;;11.20;99.90;;;;;;4996131;28;21005;-65
2022/04/05 16:03:57;;;;;;;5.17;4.77;;;11.20;99.90;;;;;;4996309;28;21016;-65
2022/04/05 16:06:25;;;;;;;5.93;5.53;;;11.20;99.90;;;;;;5000205;28;20438;-66
2022/04/05 16:08:52;;;;;;;8.70;8.00;;;11.20;99.90;;;;;;5001304;28;20454;-67
2022/04/05 16:11:19;;;;;;;8.93;8.10;;;11.20;99.90;;;;;;5001122;28;20517;-66
2022/04/05 16:13:46;;;;;;;8.90;8.10;;;11.20;99.90;;;;;;4998077;28;20461;-66
2022/04/05 16:16:13;;;;;;;8.73;7.90;;;11.10;99.90;;;;;;4996347;28;20457;-66
2022/04/05 16:18:39;;;;;;;5.73;5.10;;;11.10;99.90;;;;;;4996093;28;20457;-66
2022/04/05 16:21:06;;;;;;;6.37;5.87;;;11.10;99.90;;;;;;4995972;28;20473;-66
2022/04/05 16:23:34;;;;;;;8.00;7.40;;;11.00;99.90;;;;;;4995943;28;20458;-66
2022/04/05 16:26:01;;;;;;;7.63;6.93;;;10.90;99.90;;;;;;4995882;28;20450;-66
2022/04/05 16:28:30;;;;;;;6.40;5.90;;;10.90;99.90;;;;;;4995597;28;20942;-66
2022/04/05 16:30:57;;;;;;;6.03;5.53;;;10.80;99.90;;;;;;4995573;28;20485;-66
2022/04/05 16:33:23;;;;;;;6.67;6.13;;;10.80;99.90;;;;;;4995294;28;20489;-66
2022/04/05 16:35:52;;;;;;;6.87;6.37;;;10.80;99.90;;;;;;4995665;28;20458;-66
2022/04/05 16:38:18;;;;;;;6.50;6.00;;;10.80;99.90;;;;;;4998473;28;20461;-67
2022/04/05 16:40:47;;;;;;;6.47;6.07;;;10.80;99.90;;;;;;4998100;28;20466;-67
2022/04/05 16:43:13;;;;;;;7.20;6.60;;;10.80;99.90;;;;;;4996536;28;20450;-67
2022/04/05 16:45:40;;;;;;;9.20;6.80;;;10.80;99.90;;;;;;4995524;28;20517;-67
2022/04/05 16:48:07;;;;;;;8.53;7.63;;;10.80;99.90;;;;;;4995593;28;20792;-66
2022/04/05 16:50:34;;;;;;;8.03;7.13;;;10.80;99.90;;;;;;4995317;28;20557;-66
2022/04/05 16:53:02;;;;;;;10.00;9.10;;;10.80;99.90;;;;;;4995681;28;20469;-66
2022/04/05 16:55:29;;;;;;;10.00;8.43;;;10.80;99.90;;;;;;4995416;28;20460;-66
2022/04/05 16:57:57;;;;;;;8.20;7.50;;;10.80;99.90;;;;;;4994753;28;20941;-66
2022/04/05 17:00:24;;;;;;;10.83;9.80;;;10.70;99.90;;;;;;4994817;28;20438;-66